Virginia Beach, VA

2:17 AM EDT on May 27, 2015 (GMT -0400)
Norfolk International | | Change Station
CLOSE
Current Station
Airport
Location: Norfolk,
Elevation: 30 ft
Nearby Weather Stations

Elev 30 ft 36.90 °N, 76.19 °W | Updated 26 minutes ago

Partly Cloudy
Partly Cloudy
72 °F
Feels Like 72 °F
N
17
Wind Variable Wind from SSW

Today
High -- | Low -- °F
--% Chance of Precip.
Yesterday
High -- | Low -- °F
Precip. -- in
5:48 AM 8:14 PM
Waxing Gibbous, 64% visible
Pressure 30.23 in
Visibility 10.0 miles
Clouds Clear
Dew Point 64 °F
Humidity 76%
Rainfall 0.00 in
Snow Depth Not available.
UV 0 out of 12
Pollen 7.00 out of 12
Air Quality Not available.
Flu Activity No Activity
METAR KORF 270551Z 21015KT 10SM CLR 22/18 A3023 RMK AO2 SLP236 T02220178 10261 20222 56004

More Conditions Fewer Conditions

Pressure 30.23 in
Visibility 10.0 miles
Clouds Clear
Dew Point 64 °F
Humidity 76%
Rainfall 0.00 in
Snow Depth Not available.
UV 0 out of 12
Pollen 7.00 out of 12
Air Quality Not available.
Flu Activity No Activity
METAR KORF 270551Z 21015KT 10SM CLR 22/18 A3023 RMK AO2 SLP236 T02220178 10261 20222 56004

More Conditions Fewer Conditions

10-Day Weather Forecast

Almanac

Astronomy

May. 27, 2015 Rise Set
Actual Time
Civil Twilight
Nautical Twilight
Astronomical Twilight
Moon
Length of Visible Light
Length of Day
Tomorrow will be .
, % of the Moon is Illuminated

Today's Extremes

State Highs State Lows

Community

WunderPhotos

Upload Photos

1,824,617 photos uploaded!

WunderBlogs® & News

Nearby

Air Quality

  Air Quality AQ Index Pollutant
Not available.

Snow Depth

Station Depth Elevation

Earthquake Activity

City Distance Mag. Time & Date
Minimum magnitude displayed is 2.5.

Coastal Water Temperatures

Place Temperature

Stations

Nearby Weather Stations

Station Location Temp. Windchill Dew Point Humidity Wind Precip. Elev Updated Type